createdAt,value
2019-02-27T00:00:22.443Z,11.70
2019-02-27T00:01:22.345Z,12.10
2019-02-27T00:02:22.878Z,11.40
2019-02-27T00:03:22.145Z,11.30
2019-02-27T00:04:22.055Z,11.60
2019-02-27T00:05:21.938Z,11.40
2019-02-27T00:06:21.841Z,10.90
2019-02-27T00:07:21.742Z,11.60
2019-02-27T00:08:21.638Z,12.10
2019-02-27T00:09:21.656Z,11.40
2019-02-27T00:10:21.436Z,11.70
2019-02-27T00:11:21.338Z,11.70
2019-02-27T00:12:21.237Z,11.30
2019-02-27T00:13:24.717Z,11.40
2019-02-27T00:14:21.051Z,11.00
2019-02-27T00:15:20.932Z,11.30
2019-02-27T00:16:20.972Z,11.70
2019-02-27T00:17:20.731Z,11.00
2019-02-27T00:18:23.773Z,11.40
2019-02-27T00:19:20.545Z,12.60
2019-02-27T00:20:20.437Z,12.60
2019-02-27T00:21:20.335Z,13.00
2019-02-27T00:22:20.230Z,12.80
2019-02-27T00:23:23.857Z,11.20
2019-02-27T00:24:20.043Z,12.20
2019-02-27T00:25:19.927Z,12.00
2019-02-27T00:26:19.828Z,11.50
2019-02-27T00:27:19.725Z,11.10
2019-02-27T00:28:23.104Z,11.70
2019-02-27T00:29:19.539Z,10.70
2019-02-27T00:30:19.529Z,11.30
2019-02-27T00:31:19.321Z,11.40
2019-02-27T00:32:19.275Z,11.20
2019-02-27T00:33:19.133Z,10.60
2019-02-27T00:34:19.042Z,11.10
2019-02-27T00:35:18.923Z,11.00
2019-02-27T00:36:18.947Z,10.60
2019-02-27T00:37:19.486Z,11.40
2019-02-27T00:38:18.620Z,11.30
2019-02-27T00:39:18.535Z,11.40
2019-02-27T00:40:18.430Z,11.00
2019-02-27T00:41:18.314Z,11.00
2019-02-27T00:42:20.678Z,11.90
2019-02-27T00:43:18.114Z,11.50
2019-02-27T00:44:18.031Z,10.90
2019-02-27T00:45:17.913Z,10.80
2019-02-27T00:46:17.826Z,11.50
2019-02-27T00:47:20.205Z,11.50
2019-02-27T00:48:17.613Z,11.20
2019-02-27T00:49:17.526Z,10.60
2019-02-27T00:50:17.419Z,11.60
2019-02-27T00:51:17.311Z,11.40
2019-02-27T00:52:18.336Z,11.80
2019-02-27T00:53:17.111Z,11.10
2019-02-27T00:54:17.023Z,11.20
2019-02-27T00:55:16.906Z,11.20
2019-02-27T00:56:16.804Z,12.10
2019-02-27T00:57:20.559Z,11.60
2019-02-27T00:58:16.607Z,11.30
2019-02-27T00:59:16.523Z,11.70
2019-02-27T01:00:16.409Z,11.80
2019-02-27T01:01:16.305Z,12.10
2019-02-27T01:02:19.931Z,11.50
2019-02-27T01:03:16.099Z,12.20
2019-02-27T01:04:16.017Z,11.80
2019-02-27T01:05:15.906Z,11.70
2019-02-27T01:06:15.800Z,11.50
2019-02-27T01:07:20.386Z,11.60
2019-02-27T01:08:15.600Z,12.00
2019-02-27T01:09:15.526Z,12.30
2019-02-27T01:10:15.398Z,11.90
2019-02-27T01:11:18.189Z,11.80
2019-02-27T01:12:15.196Z,11.70
2019-02-27T01:13:15.098Z,11.40
2019-02-27T01:14:15.011Z,11.50
2019-02-27T01:15:14.892Z,11.20
2019-02-27T01:16:16.995Z,12.70
2019-02-27T01:17:14.693Z,12.00
2019-02-27T01:18:14.608Z,12.00
2019-02-27T01:19:14.510Z,11.70
2019-02-27T01:20:14.387Z,11.90
2019-02-27T01:21:14.289Z,11.80
2019-02-27T01:22:14.190Z,12.40
2019-02-27T01:23:14.085Z,12.30
2019-02-27T01:24:14.993Z,12.60
2019-02-27T01:25:13.889Z,13.30
2019-02-27T01:26:13.786Z,13.00
2019-02-27T01:27:13.684Z,12.10
2019-02-27T01:28:13.583Z,11.60
2019-02-27T01:29:15.736Z,12.00
2019-02-27T01:30:13.401Z,13.10
2019-02-27T01:31:13.283Z,12.70
2019-02-27T01:32:13.193Z,13.00
2019-02-27T01:33:13.079Z,13.00
2019-02-27T01:34:12.980Z,13.50
2019-02-27T01:35:17.453Z,13.10
2019-02-27T01:36:12.779Z,14.00
2019-02-27T01:37:12.676Z,12.30
2019-02-27T01:38:12.574Z,13.20
2019-02-27T01:39:12.653Z,13.10
2019-02-27T01:40:17.157Z,13.50
2019-02-27T01:41:12.273Z,13.30
2019-02-27T01:42:12.173Z,12.40
2019-02-27T01:43:12.070Z,12.70
2019-02-27T01:44:13.690Z,13.40
2019-02-27T01:45:11.884Z,13.10
2019-02-27T01:46:11.774Z,12.90
2019-02-27T01:47:11.667Z,12.70
2019-02-27T01:48:11.572Z,12.50
2019-02-27T01:49:15.918Z,13.00
2019-02-27T01:50:11.380Z,13.30
2019-02-27T01:51:11.266Z,13.10
2019-02-27T01:52:11.160Z,13.00
2019-02-27T01:53:11.162Z,12.50
2019-02-27T01:54:12.212Z,12.30
2019-02-27T01:55:10.878Z,11.80
2019-02-27T01:56:10.768Z,12.40
2019-02-27T01:57:10.662Z,12.50
2019-02-27T01:58:10.565Z,13.10
2019-02-27T01:59:10.455Z,13.60
2019-02-27T02:00:10.481Z,13.30
2019-02-27T02:01:10.254Z,13.00
2019-02-27T02:02:10.151Z,13.00
2019-02-27T02:03:11.140Z,13.10
2019-02-27T02:04:09.952Z,12.10
2019-02-27T02:05:09.864Z,12.70
2019-02-27T02:06:09.748Z,13.30
2019-02-27T02:07:09.666Z,11.90
2019-02-27T02:08:13.627Z,11.90
2019-02-27T02:09:09.445Z,11.90
2019-02-27T02:10:09.362Z,12.80
2019-02-27T02:11:09.242Z,13.20
2019-02-27T02:12:09.141Z,12.80
2019-02-27T02:13:09.039Z,12.90
2019-02-27T02:14:08.941Z,11.80
2019-02-27T02:15:08.858Z,11.20
2019-02-27T02:16:08.741Z,11.10
2019-02-27T02:17:08.638Z,11.70
2019-02-27T02:18:08.537Z,11.90
2019-02-27T02:19:08.435Z,11.90
2019-02-27T02:20:08.349Z,11.40
2019-02-27T02:21:08.230Z,12.20
2019-02-27T02:22:08.860Z,11.80
2019-02-27T02:23:08.031Z,12.00
2019-02-27T02:24:07.935Z,12.70
2019-02-27T02:25:07.859Z,12.30
2019-02-27T02:26:07.727Z,13.00
2019-02-27T02:27:08.133Z,12.00
2019-02-27T02:28:07.527Z,13.10
2019-02-27T02:29:07.422Z,12.10
2019-02-27T02:30:07.343Z,12.50
2019-02-27T02:31:07.220Z,12.20
2019-02-27T02:32:07.118Z,12.10
2019-02-27T02:33:07.025Z,11.80
2019-02-27T02:34:06.922Z,12.50
2019-02-27T02:35:06.833Z,12.00
2019-02-27T02:36:06.716Z,11.90
2019-02-27T02:37:06.927Z,12.00
2019-02-27T02:38:12.117Z,12.10
2019-02-27T02:39:06.417Z,12.20
2019-02-27T02:40:06.327Z,13.00
2019-02-27T02:41:08.397Z,12.40
2019-02-27T02:42:06.112Z,12.50
2019-02-27T02:43:06.013Z,12.70
2019-02-27T02:44:05.909Z,12.70
2019-02-27T02:45:05.825Z,13.70
2019-02-27T02:46:08.799Z,13.10
2019-02-27T02:47:05.605Z,13.40
2019-02-27T02:48:05.503Z,13.20
2019-02-27T02:49:07.885Z,13.50
2019-02-27T02:50:05.426Z,12.90
2019-02-27T02:51:05.204Z,12.50
2019-02-27T02:52:05.873Z,13.20
2019-02-27T02:53:04.997Z,13.60
2019-02-27T02:54:04.902Z,13.30
2019-02-27T02:55:04.818Z,14.30
2019-02-27T02:56:04.694Z,12.50
2019-02-27T02:57:05.077Z,13.30
2019-02-27T02:58:07.886Z,12.60
2019-02-27T02:59:04.391Z,12.70
2019-02-27T03:00:04.309Z,13.60
2019-02-27T03:01:04.191Z,12.90
2019-02-27T03:02:04.096Z,13.10
2019-02-27T03:03:03.993Z,12.80
2019-02-27T03:04:04.019Z,13.40
2019-02-27T03:05:03.805Z,14.00
2019-02-27T03:06:03.688Z,12.30
2019-02-27T03:07:07.232Z,13.30
2019-02-27T03:08:03.484Z,13.40
2019-02-27T03:09:03.387Z,12.20
2019-02-27T03:10:07.034Z,12.90
2019-02-27T03:11:03.304Z,13.10
2019-02-27T03:12:03.088Z,13.20
2019-02-27T03:13:06.258Z,12.60
2019-02-27T03:14:02.882Z,12.20
2019-02-27T03:15:02.783Z,13.00
2019-02-27T03:16:04.606Z,13.50
2019-02-27T03:17:02.576Z,13.30
2019-02-27T03:18:02.579Z,12.60
2019-02-27T03:19:06.258Z,13.40
2019-02-27T03:20:02.288Z,13.60
2019-02-27T03:21:02.191Z,14.10
2019-02-27T03:22:03.640Z,14.70
2019-02-27T03:23:01.978Z,13.70
2019-02-27T03:24:02.005Z,13.60
2019-02-27T03:25:04.499Z,13.00
2019-02-27T03:26:01.688Z,13.90
2019-02-27T03:27:01.570Z,14.10
2019-02-27T03:28:04.684Z,14.00
2019-02-27T03:29:01.366Z,13.90
2019-02-27T03:30:01.272Z,14.50
2019-02-27T03:31:01.182Z,14.40
2019-02-27T03:32:01.534Z,15.00
2019-02-27T03:33:00.978Z,15.40
2019-02-27T03:34:08.173Z,14.30
2019-02-27T03:35:00.764Z,15.00
2019-02-27T03:36:03.355Z,14.70
2019-02-27T03:37:00.560Z,14.70
2019-02-27T03:38:00.463Z,14.00
2019-02-27T03:39:00.385Z,15.00
2019-02-27T03:40:00.370Z,15.40
2019-02-27T03:41:00.177Z,15.40
2019-02-27T03:42:00.071Z,15.50
2019-02-27T03:42:59.963Z,16.20
2019-02-27T03:43:59.858Z,16.30
2019-02-27T03:44:59.759Z,17.10
2019-02-27T03:46:02.985Z,17.20
2019-02-27T03:46:59.568Z,16.50
2019-02-27T03:47:59.453Z,16.60
2019-02-27T03:49:03.029Z,16.30
2019-02-27T03:49:59.254Z,16.20
2019-02-27T03:50:59.180Z,16.20
2019-02-27T03:52:00.642Z,16.60
2019-02-27T03:52:58.950Z,16.80
2019-02-27T03:53:58.851Z,16.50
2019-02-27T03:54:58.750Z,16.10
2019-02-27T03:55:58.660Z,16.60
2019-02-27T03:56:58.547Z,16.40
2019-02-27T03:57:58.447Z,16.50
2019-02-27T03:58:58.347Z,16.60
2019-02-27T03:59:58.249Z,16.80
2019-02-27T04:00:58.157Z,16.10
2019-02-27T04:01:58.041Z,16.90
2019-02-27T04:02:57.942Z,16.40
2019-02-27T04:03:57.840Z,16.10
2019-02-27T04:04:57.739Z,15.90
2019-02-27T04:05:57.652Z,16.20
2019-02-27T04:06:57.542Z,17.10
2019-02-27T04:07:57.437Z,16.80
2019-02-27T04:08:57.353Z,16.30
2019-02-27T04:09:57.250Z,16.80
2019-02-27T04:10:57.151Z,17.50
2019-02-27T04:11:57.039Z,17.20
2019-02-27T04:12:56.932Z,15.90
2019-02-27T04:14:03.319Z,16.60
2019-02-27T04:14:56.729Z,17.00
2019-02-27T04:15:56.643Z,16.60
2019-02-27T04:16:56.525Z,16.50
2019-02-27T04:17:56.430Z,16.40
2019-02-27T04:19:02.920Z,16.50
2019-02-27T04:19:56.221Z,16.80
2019-02-27T04:20:56.143Z,16.50
2019-02-27T04:22:00.599Z,17.10
2019-02-27T04:22:55.919Z,15.90
2019-02-27T04:23:55.819Z,15.80
2019-02-27T04:24:56.825Z,15.80
2019-02-27T04:25:55.631Z,16.70
2019-02-27T04:26:55.513Z,16.20
2019-02-27T04:27:56.264Z,17.10
2019-02-27T04:28:55.320Z,17.20
2019-02-27T04:29:55.210Z,16.90
2019-02-27T04:30:55.127Z,16.40
2019-02-27T04:31:55.017Z,18.30
2019-02-27T04:32:54.912Z,17.90
2019-02-27T04:33:59.826Z,18.30
2019-02-27T04:34:54.706Z,18.80
2019-02-27T04:35:54.622Z,19.10
2019-02-27T04:36:54.503Z,20.20
2019-02-27T04:37:54.919Z,19.90
2019-02-27T04:38:54.296Z,20.20
2019-02-27T04:39:54.195Z,19.80
2019-02-27T04:40:54.111Z,20.30
2019-02-27T04:41:53.994Z,19.70
2019-02-27T04:42:53.893Z,20.00
2019-02-27T04:43:53.793Z,19.20
2019-02-27T04:44:53.739Z,20.10
2019-02-27T04:45:53.605Z,19.40
2019-02-27T04:46:55.079Z,18.30
2019-02-27T04:47:53.508Z,19.60
2019-02-27T04:48:53.281Z,19.80
2019-02-27T04:49:53.181Z,19.60
2019-02-27T04:50:53.098Z,20.30
2019-02-27T04:51:52.979Z,19.30
2019-02-27T04:52:52.878Z,19.30
2019-02-27T04:53:52.776Z,20.00
2019-02-27T04:54:52.778Z,19.80
2019-02-27T04:55:52.582Z,20.30
2019-02-27T04:56:55.093Z,20.20
2019-02-27T04:57:52.370Z,20.10
2019-02-27T04:58:52.265Z,21.70
2019-02-27T04:59:52.234Z,20.00
2019-02-27T05:00:52.064Z,20.10
2019-02-27T05:01:52.087Z,20.80
2019-02-27T05:02:53.529Z,20.00
2019-02-27T05:03:51.759Z,20.20
2019-02-27T05:04:51.658Z,19.50
2019-02-27T05:05:51.558Z,20.30
2019-02-27T05:06:51.471Z,20.60
2019-02-27T05:07:54.049Z,20.60
2019-02-27T05:08:51.351Z,20.60
2019-02-27T05:09:51.152Z,20.60
2019-02-27T05:10:51.056Z,20.40
2019-02-27T05:11:50.961Z,20.70
2019-02-27T05:12:50.844Z,20.50
2019-02-27T05:13:54.090Z,20.00
2019-02-27T05:14:50.656Z,20.50
2019-02-27T05:15:50.647Z,20.80
2019-02-27T05:16:50.454Z,20.40
2019-02-27T05:17:50.339Z,20.50
2019-02-27T05:18:50.236Z,20.90
2019-02-27T05:19:51.986Z,20.70
2019-02-27T05:20:50.039Z,20.30
2019-02-27T05:21:52.290Z,20.10
2019-02-27T05:22:49.934Z,20.20
2019-02-27T05:23:49.731Z,20.10
2019-02-27T05:24:49.629Z,20.90
2019-02-27T05:25:49.530Z,19.90
2019-02-27T05:26:49.443Z,20.00
2019-02-27T05:27:49.326Z,19.40
2019-02-27T05:28:49.222Z,18.80
2019-02-27T05:29:49.224Z,19.30
2019-02-27T05:30:49.019Z,19.70
2019-02-27T05:31:50.230Z,19.10
2019-02-27T05:32:48.814Z,18.80
2019-02-27T05:33:48.712Z,19.40
2019-02-27T05:34:49.806Z,19.20
2019-02-27T05:35:48.513Z,19.10
2019-02-27T05:36:48.532Z,19.10
2019-02-27T05:37:48.307Z,18.90
2019-02-27T05:38:48.205Z,18.20
2019-02-27T05:39:50.942Z,19.60
2019-02-27T05:40:48.008Z,18.40
2019-02-27T05:41:47.917Z,18.60
2019-02-27T05:42:47.801Z,18.10
2019-02-27T05:43:48.604Z,19.60
2019-02-27T05:44:47.600Z,19.80
2019-02-27T05:45:47.497Z,19.10
2019-02-27T05:46:47.410Z,19.90
2019-02-27T05:47:47.292Z,18.70
2019-02-27T05:48:47.194Z,19.20
2019-02-27T05:49:47.093Z,19.60
2019-02-27T05:50:47.095Z,18.90
2019-02-27T05:51:46.903Z,18.40
2019-02-27T05:52:48.738Z,19.40
2019-02-27T05:53:46.690Z,18.30
2019-02-27T05:54:46.583Z,19.30
2019-02-27T05:55:46.484Z,19.00
2019-02-27T05:56:47.180Z,19.60
2019-02-27T05:57:46.388Z,20.20
2019-02-27T05:58:46.177Z,19.40
2019-02-27T05:59:46.076Z,19.70
2019-02-27T06:00:45.977Z,19.60
2019-02-27T06:01:45.891Z,18.90
2019-02-27T06:02:45.774Z,19.10
2019-02-27T06:03:45.671Z,18.40
2019-02-27T06:04:45.679Z,17.90
2019-02-27T06:05:49.651Z,18.70
2019-02-27T06:06:45.905Z,18.80
2019-02-27T06:07:45.266Z,19.20
2019-02-27T06:08:45.165Z,20.00
2019-02-27T06:09:45.089Z,19.50
2019-02-27T06:10:44.964Z,19.60
2019-02-27T06:11:44.879Z,18.90
2019-02-27T06:12:44.763Z,19.90
2019-02-27T06:13:47.186Z,19.20
2019-02-27T06:14:44.557Z,20.00
2019-02-27T06:15:44.458Z,19.40
2019-02-27T06:16:44.372Z,19.50
2019-02-27T06:17:48.840Z,19.40
2019-02-27T06:18:44.158Z,18.40
2019-02-27T06:19:44.051Z,18.20
2019-02-27T06:20:43.953Z,18.90
2019-02-27T06:21:43.867Z,19.70
2019-02-27T06:22:43.750Z,19.10
2019-02-27T06:23:43.647Z,19.00
2019-02-27T06:24:45.630Z,19.60
2019-02-27T06:25:43.446Z,19.20
2019-02-27T06:26:43.360Z,19.60
2019-02-27T06:27:43.238Z,20.10
2019-02-27T06:28:43.146Z,20.30
2019-02-27T06:29:43.042Z,20.40
2019-02-27T06:30:42.936Z,21.40
2019-02-27T06:31:42.854Z,21.00
2019-02-27T06:32:42.732Z,22.40
2019-02-27T06:33:44.957Z,22.40
2019-02-27T06:34:42.529Z,24.50
2019-02-27T06:35:42.428Z,22.40
2019-02-27T06:36:43.054Z,21.50
2019-02-27T06:37:42.231Z,22.70
2019-02-27T06:38:42.127Z,23.00
2019-02-27T06:39:42.025Z,24.40
2019-02-27T06:40:42.857Z,21.90
2019-02-27T06:41:41.826Z,23.20
2019-02-27T06:42:41.737Z,21.20
2019-02-27T06:43:41.624Z,21.60
2019-02-27T06:44:41.520Z,21.50
2019-02-27T06:45:45.374Z,21.00
2019-02-27T06:46:41.322Z,20.30
2019-02-27T06:47:41.232Z,19.80
2019-02-27T06:48:43.077Z,19.50
2019-02-27T06:49:41.016Z,19.50
2019-02-27T06:50:40.911Z,19.50
2019-02-27T06:51:40.812Z,18.00
2019-02-27T06:52:42.471Z,17.80
2019-02-27T06:53:40.609Z,17.10
2019-02-27T06:54:40.506Z,16.70
2019-02-27T06:55:40.409Z,17.50
2019-02-27T06:56:40.308Z,16.30
2019-02-27T06:57:41.311Z,15.40
2019-02-27T06:58:40.109Z,13.50
2019-02-27T06:59:40.007Z,13.90
2019-02-27T07:00:39.907Z,14.20
2019-02-27T07:01:39.808Z,14.10
2019-02-27T07:02:39.721Z,14.60
2019-02-27T07:03:39.608Z,15.50
2019-02-27T07:04:40.280Z,15.50
2019-02-27T07:05:39.408Z,15.50
2019-02-27T07:06:39.310Z,14.80
2019-02-27T07:07:39.225Z,18.00
2019-02-27T07:08:39.111Z,16.10
2019-02-27T07:09:39.017Z,14.20
2019-02-27T07:10:38.916Z,13.00
2019-02-27T07:11:38.820Z,13.40
2019-02-27T07:12:38.738Z,13.30
2019-02-27T07:13:38.624Z,13.60
2019-02-27T07:14:39.277Z,13.30
2019-02-27T07:15:38.429Z,13.40
2019-02-27T07:16:38.333Z,13.70
2019-02-27T07:17:38.264Z,15.40
2019-02-27T07:18:41.476Z,15.50
2019-02-27T07:19:38.040Z,14.00
2019-02-27T07:20:37.947Z,13.10
2019-02-27T07:21:37.850Z,13.10
2019-02-27T07:22:37.769Z,16.70
2019-02-27T07:23:37.663Z,18.00
2019-02-27T07:24:37.566Z,18.20
2019-02-27T07:25:42.001Z,19.60
2019-02-27T07:26:37.375Z,19.60
2019-02-27T07:27:37.294Z,20.10
2019-02-27T07:28:37.185Z,20.40
2019-02-27T07:29:37.090Z,18.20
2019-02-27T07:30:39.682Z,16.50
2019-02-27T07:31:36.900Z,16.20
2019-02-27T07:32:36.824Z,16.30
2019-02-27T07:33:38.047Z,16.30
2019-02-27T07:34:36.619Z,16.50
2019-02-27T07:35:36.529Z,15.80
2019-02-27T07:36:38.545Z,15.90
2019-02-27T07:37:36.340Z,16.10
2019-02-27T07:38:36.262Z,16.50
2019-02-27T07:39:36.157Z,17.20
2019-02-27T07:40:36.062Z,16.00
2019-02-27T07:41:35.972Z,17.80
2019-02-27T07:42:36.354Z,19.80
2019-02-27T07:43:35.801Z,20.20
2019-02-27T07:44:35.879Z,19.80
2019-02-27T07:45:35.630Z,19.50
2019-02-27T07:46:35.677Z,19.20
2019-02-27T07:47:35.449Z,18.00
2019-02-27T07:48:35.340Z,17.90
2019-02-27T07:49:35.230Z,17.20
2019-02-27T07:50:35.140Z,17.30
2019-02-27T07:51:35.049Z,18.50
2019-02-27T07:52:34.961Z,18.10
2019-02-27T07:53:34.901Z,16.80
2019-02-27T07:54:34.774Z,16.60
2019-02-27T07:55:34.687Z,16.30
2019-02-27T07:56:34.698Z,15.20
2019-02-27T07:57:34.503Z,14.00
2019-02-27T07:58:34.632Z,14.00
2019-02-27T07:59:37.979Z,13.30
2019-02-27T08:00:34.234Z,14.20
2019-02-27T08:01:43.257Z,14.80
2019-02-27T08:02:36.185Z,15.70
2019-02-27T08:03:34.083Z,15.10
2019-02-27T08:04:33.871Z,15.40
2019-02-27T08:05:33.783Z,16.00
2019-02-27T08:06:35.067Z,15.50
2019-02-27T08:07:33.594Z,15.80
2019-02-27T08:08:33.521Z,15.80
2019-02-27T08:09:33.414Z,16.10
2019-02-27T08:10:36.750Z,15.90
2019-02-27T08:11:33.237Z,15.80
2019-02-27T08:12:33.149Z,15.00
2019-02-27T08:13:33.074Z,15.80
2019-02-27T08:14:36.852Z,15.50
2019-02-27T08:15:32.879Z,15.30
2019-02-27T08:16:32.787Z,15.30
2019-02-27T08:17:32.808Z,15.10
2019-02-27T08:18:36.566Z,15.20
2019-02-27T08:19:32.520Z,14.80
2019-02-27T08:20:32.431Z,15.60
2019-02-27T08:21:32.343Z,16.70
2019-02-27T08:22:32.256Z,16.10
2019-02-27T08:23:32.916Z,15.10
2019-02-27T08:24:33.602Z,14.80
2019-02-27T08:25:31.988Z,16.90
2019-02-27T08:26:31.897Z,15.60
2019-02-27T08:27:31.808Z,16.00
2019-02-27T08:28:31.722Z,15.60
2019-02-27T08:29:31.658Z,16.00
2019-02-27T08:30:31.546Z,15.70
2019-02-27T08:31:32.119Z,16.90
2019-02-27T08:32:31.954Z,16.70
2019-02-27T08:33:31.289Z,16.50
2019-02-27T08:34:31.208Z,16.60
2019-02-27T08:35:31.106Z,16.20
2019-02-27T08:36:31.014Z,17.50
2019-02-27T08:37:30.925Z,17.90
2019-02-27T08:38:30.942Z,16.50
2019-02-27T08:39:30.766Z,17.10
2019-02-27T08:40:30.664Z,16.50
2019-02-27T08:41:31.454Z,16.40
2019-02-27T08:42:30.485Z,17.00
2019-02-27T08:43:30.643Z,16.60
2019-02-27T08:44:30.331Z,17.00
2019-02-27T08:45:30.333Z,17.20
2019-02-27T08:46:30.136Z,17.30
2019-02-27T08:47:30.051Z,16.90
2019-02-27T08:48:29.963Z,16.90
2019-02-27T08:49:31.811Z,16.90
2019-02-27T08:50:31.658Z,17.40
2019-02-27T08:51:29.840Z,16.60
2019-02-27T08:52:29.615Z,18.60
2019-02-27T08:53:29.528Z,18.10
2019-02-27T08:54:32.292Z,18.50
2019-02-27T08:55:29.348Z,17.60
2019-02-27T08:56:30.052Z,18.10
2019-02-27T08:57:29.179Z,17.80
2019-02-27T08:58:29.735Z,18.30
2019-02-27T08:59:29.025Z,18.40
2019-02-27T09:00:28.915Z,18.00
2019-02-27T09:01:28.830Z,17.50
2019-02-27T09:02:29.498Z,18.00
2019-02-27T09:03:28.656Z,18.20
2019-02-27T09:04:28.587Z,18.40
2019-02-27T09:05:28.488Z,18.60
2019-02-27T09:06:28.399Z,18.00
2019-02-27T09:07:28.331Z,18.00
2019-02-27T09:08:31.369Z,17.90
2019-02-27T09:09:28.158Z,18.20
2019-02-27T09:10:30.499Z,17.20
2019-02-27T09:11:27.965Z,17.40
2019-02-27T09:12:27.882Z,18.60
2019-02-27T09:13:27.795Z,18.40
2019-02-27T09:14:27.736Z,17.40
2019-02-27T09:15:27.625Z,17.50
2019-02-27T09:16:27.540Z,16.20
2019-02-27T09:17:27.915Z,16.50
2019-02-27T09:18:27.368Z,16.90
2019-02-27T09:19:27.301Z,16.30
2019-02-27T09:20:27.207Z,16.40
2019-02-27T09:21:27.880Z,16.50
2019-02-27T09:22:27.029Z,16.30
2019-02-27T09:23:26.943Z,15.70
2019-02-27T09:24:26.875Z,14.90
2019-02-27T09:25:26.778Z,15.50
2019-02-27T09:26:26.690Z,15.40
2019-02-27T09:27:26.607Z,15.50
2019-02-27T09:28:26.524Z,14.80
2019-02-27T09:29:26.458Z,15.20
2019-02-27T09:30:29.379Z,14.70
2019-02-27T09:31:26.267Z,14.60
2019-02-27T09:32:26.184Z,14.90
2019-02-27T09:33:26.104Z,14.10
2019-02-27T09:34:26.861Z,13.60
2019-02-27T09:35:25.934Z,13.90
2019-02-27T09:36:25.850Z,12.20
2019-02-27T09:37:25.765Z,12.10
2019-02-27T09:38:25.680Z,12.40
2019-02-27T09:39:30.668Z,12.90
2019-02-27T09:40:25.513Z,12.80
2019-02-27T09:41:25.431Z,13.30
2019-02-27T09:42:25.345Z,13.40
2019-02-27T09:43:27.266Z,12.90
2019-02-27T09:44:25.197Z,12.20
2019-02-27T09:45:25.095Z,12.80
2019-02-27T09:46:25.031Z,9.70
2019-02-27T09:47:25.850Z,11.10
2019-02-27T09:48:24.849Z,13.10
2019-02-27T09:49:24.780Z,12.80
2019-02-27T09:50:24.679Z,12.00
2019-02-27T09:51:24.600Z,10.50
2019-02-27T09:52:24.513Z,9.10
2019-02-27T09:53:24.432Z,8.60
2019-02-27T09:54:24.474Z,9.40
2019-02-27T09:55:24.268Z,9.00
2019-02-27T09:56:26.044Z,9.30
2019-02-27T09:57:24.104Z,8.90
2019-02-27T09:58:24.019Z,8.20
2019-02-27T09:59:23.951Z,8.60
2019-02-27T10:00:26.595Z,8.10
2019-02-27T10:01:23.883Z,8.30
2019-02-27T10:02:23.716Z,7.60
2019-02-27T10:03:23.607Z,7.70
2019-02-27T10:04:25.926Z,7.60
2019-02-27T10:05:23.464Z,7.60
2019-02-27T10:06:23.359Z,7.40
2019-02-27T10:07:23.279Z,7.50
2019-02-27T10:08:25.242Z,7.90
2019-02-27T10:09:23.143Z,7.60
2019-02-27T10:10:23.028Z,8.10
2019-02-27T10:11:22.946Z,8.20
2019-02-27T10:12:27.065Z,7.50
2019-02-27T10:13:22.784Z,8.40
2019-02-27T10:14:22.719Z,7.70
2019-02-27T10:15:25.244Z,8.10
2019-02-27T10:16:22.540Z,8.30
2019-02-27T10:17:22.458Z,8.40
2019-02-27T10:18:22.370Z,8.70
2019-02-27T10:19:22.291Z,8.70
2019-02-27T10:20:22.239Z,8.00
2019-02-27T10:21:22.126Z,8.00
2019-02-27T10:22:22.146Z,8.70
2019-02-27T10:23:21.961Z,8.10
2019-02-27T10:24:21.878Z,8.00
2019-02-27T10:25:21.815Z,7.80
2019-02-27T10:26:22.679Z,7.90
2019-02-27T10:27:21.635Z,7.90
2019-02-27T10:28:21.552Z,7.20
2019-02-27T10:29:21.577Z,6.00
2019-02-27T10:30:21.408Z,6.70
2019-02-27T10:31:21.315Z,7.50
2019-02-27T10:32:21.225Z,6.80
2019-02-27T10:33:21.142Z,6.20
2019-02-27T10:34:21.061Z,6.40
2019-02-27T10:35:22.880Z,6.50
2019-02-27T10:36:21.005Z,6.60
2019-02-27T10:37:20.935Z,4.80
2019-02-27T10:38:20.733Z,4.40
2019-02-27T10:39:20.650Z,4.70
2019-02-27T10:40:20.583Z,4.20
2019-02-27T10:41:20.489Z,4.40
2019-02-27T10:42:20.404Z,4.60
2019-02-27T10:43:21.146Z,4.10
2019-02-27T10:44:20.243Z,4.20
2019-02-27T10:45:20.172Z,4.60
2019-02-27T10:46:23.501Z,4.20
2019-02-27T10:47:19.993Z,4.10
2019-02-27T10:48:19.911Z,3.80
2019-02-27T10:49:21.787Z,3.90
2019-02-27T10:50:19.870Z,4.20
2019-02-27T10:51:19.666Z,4.30
2019-02-27T10:52:24.082Z,4.00
2019-02-27T10:53:19.500Z,3.90
2019-02-27T10:54:19.418Z,3.90
2019-02-27T10:55:19.352Z,3.60
2019-02-27T10:56:21.594Z,3.80
2019-02-27T10:57:19.278Z,3.30
2019-02-27T10:58:19.092Z,3.50
2019-02-27T10:59:19.678Z,3.20
2019-02-27T11:00:18.943Z,3.30
2019-02-27T11:01:18.850Z,3.40
2019-02-27T11:02:18.763Z,3.30
2019-02-27T11:03:18.686Z,3.00
2019-02-27T11:04:18.711Z,3.00
2019-02-27T11:05:18.560Z,3.00
2019-02-27T11:06:18.438Z,3.10
2019-02-27T11:07:18.358Z,2.90
2019-02-27T11:08:18.281Z,2.90
2019-02-27T11:09:18.205Z,2.80
2019-02-27T11:10:18.130Z,2.90
2019-02-27T11:11:18.032Z,2.60
2019-02-27T11:12:17.954Z,3.10
2019-02-27T11:13:17.871Z,2.30
2019-02-27T11:14:17.792Z,2.80
2019-02-27T11:15:17.724Z,2.70
2019-02-27T11:16:20.846Z,2.60
2019-02-27T11:17:17.551Z,3.00
2019-02-27T11:18:17.463Z,2.80
2019-02-27T11:19:17.383Z,2.80
2019-02-27T11:20:20.752Z,3.00
2019-02-27T11:21:17.222Z,2.80
2019-02-27T11:22:17.143Z,3.30
2019-02-27T11:23:17.055Z,3.00
2019-02-27T11:24:17.421Z,3.10
2019-02-27T11:25:16.909Z,2.80
2019-02-27T11:26:16.808Z,2.80
2019-02-27T11:27:16.897Z,3.10
2019-02-27T11:28:16.647Z,2.90
2019-02-27T11:29:16.564Z,2.70
2019-02-27T11:30:16.499Z,2.80
2019-02-27T11:31:16.402Z,2.70
2019-02-27T11:32:16.320Z,2.50
2019-02-27T11:33:25.031Z,3.00
2019-02-27T11:34:16.310Z,2.90
2019-02-27T11:35:16.089Z,3.00
2019-02-27T11:36:15.999Z,3.30
2019-02-27T11:37:16.518Z,2.90
2019-02-27T11:38:15.822Z,2.70
2019-02-27T11:39:15.743Z,2.90
2019-02-27T11:40:15.678Z,2.60
2019-02-27T11:41:15.953Z,2.70
2019-02-27T11:42:15.494Z,2.50
2019-02-27T11:43:17.187Z,3.10
2019-02-27T11:44:15.332Z,2.90
2019-02-27T11:45:15.275Z,2.70
2019-02-27T11:46:15.168Z,2.90
2019-02-27T11:47:15.086Z,2.60
2019-02-27T11:48:15.005Z,2.70
2019-02-27T11:49:14.922Z,3.00
2019-02-27T11:50:17.841Z,2.40
2019-02-27T11:51:17.527Z,2.30
2019-02-27T11:52:14.674Z,2.60
2019-02-27T11:53:14.591Z,2.40
2019-02-27T11:54:14.593Z,2.40
2019-02-27T11:55:15.013Z,2.40
2019-02-27T11:56:14.345Z,2.10
2019-02-27T11:57:14.263Z,2.10
2019-02-27T11:58:14.183Z,2.00
2019-02-27T11:59:14.100Z,2.30
2019-02-27T12:00:14.034Z,2.30
2019-02-27T12:01:13.936Z,2.00
2019-02-27T12:02:13.859Z,2.50
2019-02-27T12:03:13.778Z,2.10
2019-02-27T12:04:13.696Z,2.30
2019-02-27T12:05:13.612Z,2.70
2019-02-27T12:06:13.545Z,2.60
2019-02-27T12:07:17.202Z,2.60
2019-02-27T12:08:13.363Z,2.60
2019-02-27T12:09:13.286Z,2.40
2019-02-27T12:10:13.202Z,2.30
2019-02-27T12:11:14.170Z,2.10
2019-02-27T12:12:13.035Z,2.10
2019-02-27T12:13:12.954Z,2.10
2019-02-27T12:14:12.887Z,2.10
2019-02-27T12:15:12.795Z,2.00
2019-02-27T12:16:15.273Z,2.10
2019-02-27T12:17:12.626Z,2.50
2019-02-27T12:18:12.546Z,2.10
2019-02-27T12:19:12.467Z,2.40
2019-02-27T12:20:12.383Z,2.30
2019-02-27T12:21:12.319Z,2.40
2019-02-27T12:22:12.221Z,2.50
2019-02-27T12:23:12.134Z,2.30
2019-02-27T12:24:12.054Z,2.30
2019-02-27T12:25:11.975Z,1.60
2019-02-27T12:26:11.921Z,1.20
2019-02-27T12:27:23.218Z,1.90
2019-02-27T12:28:11.729Z,1.40
2019-02-27T12:29:11.645Z,1.60
2019-02-27T12:30:11.568Z,1.40
2019-02-27T12:31:14.237Z,1.50
2019-02-27T12:32:11.405Z,1.50
2019-02-27T12:33:11.321Z,1.60
2019-02-27T12:34:11.344Z,1.20
2019-02-27T12:35:11.477Z,1.10
2019-02-27T12:36:11.090Z,1.20
2019-02-27T12:37:23.126Z,1.40
2019-02-27T12:38:11.475Z,1.20
2019-02-27T12:39:15.260Z,1.10
2019-02-27T12:40:10.748Z,1.10
2019-02-27T12:41:10.789Z,1.20
2019-02-27T12:42:10.585Z,1.30
2019-02-27T12:43:10.507Z,1.20
2019-02-27T12:44:10.426Z,1.20
2019-02-27T12:45:10.340Z,1.40
2019-02-27T12:46:10.274Z,1.30
2019-02-27T12:47:10.178Z,1.20
2019-02-27T12:48:12.550Z,1.10
2019-02-27T12:49:10.016Z,1.20
2019-02-27T12:50:09.932Z,1.30
2019-02-27T12:51:10.753Z,1.20
2019-02-27T12:52:12.072Z,1.00
2019-02-27T12:53:09.684Z,1.10
2019-02-27T12:54:09.600Z,1.30
2019-02-27T12:55:09.625Z,1.30
2019-02-27T12:56:09.451Z,1.20
2019-02-27T12:57:09.354Z,1.20